Time;durP1;ratioP1;P1;durP2;ratioP2;P2;SDS_P1;SDS_P2;PMS_P1;PMS_P2;Temp;Humidity;BMP_temperature;BMP_pressure;BME280_temperature;BME280_humidity;BME280_pressure;Samples;Min_cycle;Max_cycle;Signal;HPM_P1;HPM_P2
2023/11/21 00:00:11;;;;;;;3.65;2.08;;;9.00;99.90;;;;;;2075994;28;20557;-74
2023/11/21 00:01:13;;;;;;;3.75;1.90;;;9.10;99.90;;;;;;2065225;28;20114;-73
2023/11/21 00:02:14;;;;;;;2.75;2.08;;;9.10;99.90;;;;;;2074982;28;20515;-75
2023/11/21 00:03:15;;;;;;;2.40;1.88;;;9.10;99.90;;;;;;2082046;28;20060;-74
2023/11/21 00:04:15;;;;;;;4.28;2.20;;;9.10;99.90;;;;;;2080190;28;20025;-74
2023/11/21 00:05:16;;;;;;;3.92;2.08;;;9.10;99.90;;;;;;2079741;28;20628;-74
2023/11/21 00:06:18;;;;;;;3.38;1.98;;;9.10;99.90;;;;;;2081079;28;20493;-74
2023/11/21 00:07:18;;;;;;;5.35;1.98;;;9.00;99.90;;;;;;2079653;28;20479;-74
2023/11/21 00:08:19;;;;;;;2.92;1.90;;;9.10;99.90;;;;;;2081408;28;20021;-74
2023/11/21 00:09:19;;;;;;;5.43;1.90;;;9.10;99.90;;;;;;2082933;28;20028;-74
2023/11/21 00:10:20;;;;;;;3.05;1.95;;;9.10;99.90;;;;;;2089971;28;20070;-75
2023/11/21 00:11:21;;;;;;;4.28;2.00;;;9.10;99.90;;;;;;2088078;28;20017;-75
2023/11/21 00:12:21;;;;;;;4.45;2.28;;;9.10;99.90;;;;;;2082517;28;20041;-75
2023/11/21 00:13:22;;;;;;;3.20;2.13;;;9.10;99.90;;;;;;2075064;28;20033;-75
2023/11/21 00:14:23;;;;;;;3.85;1.90;;;9.10;99.90;;;;;;2066622;28;20025;-75
2023/11/21 00:15:23;;;;;;;5.50;2.15;;;9.10;99.90;;;;;;2079353;28;20587;-74
2023/11/21 00:16:25;;;;;;;3.30;2.10;;;9.10;99.90;;;;;;2088704;28;20028;-76
2023/11/21 00:17:26;;;;;;;3.47;2.00;;;9.10;99.90;;;;;;2073913;28;20029;-75
2023/11/21 00:18:26;;;;;;;2.90;2.17;;;9.10;99.90;;;;;;2075794;28;20057;-76
2023/11/21 00:19:27;;;;;;;3.83;2.15;;;9.10;99.90;;;;;;2082707;28;20021;-74
2023/11/21 00:20:28;;;;;;;3.70;2.08;;;9.10;99.90;;;;;;2082842;28;20036;-75
2023/11/21 00:21:28;;;;;;;3.55;2.00;;;9.10;99.90;;;;;;2080692;28;20609;-75
2023/11/21 00:22:29;;;;;;;2.47;2.03;;;9.10;99.90;;;;;;2076319;28;20038;-75
2023/11/21 00:23:29;;;;;;;3.00;2.10;;;9.10;99.90;;;;;;2074700;28;20063;-75
2023/11/21 00:24:30;;;;;;;3.85;2.00;;;9.10;99.90;;;;;;2076173;28;20567;-75
2023/11/21 00:25:31;;;;;;;3.92;2.00;;;9.10;99.90;;;;;;2077067;28;20026;-76
2023/11/21 00:26:36;;;;;;;5.53;2.08;;;9.10;99.90;;;;;;2081476;28;20032;-76
2023/11/21 00:27:38;;;;;;;2.78;2.25;;;9.10;99.90;;;;;;2082237;28;20395;-76
2023/11/21 00:28:39;;;;;;;3.53;2.25;;;9.10;99.90;;;;;;2075252;28;20029;-74
2023/11/21 00:29:40;;;;;;;3.42;2.10;;;9.10;99.90;;;;;;2079268;28;20055;-74
2023/11/21 00:30:41;;;;;;;3.00;2.05;;;9.10;99.90;;;;;;2083090;28;20024;-75
2023/11/21 00:31:42;;;;;;;3.03;2.10;;;9.10;99.90;;;;;;2071212;28;20599;-74
2023/11/21 00:32:43;;;;;;;3.20;2.13;;;9.10;99.90;;;;;;2066892;28;20046;-76
2023/11/21 00:33:43;;;;;;;2.55;2.00;;;9.10;99.90;;;;;;2075034;28;20025;-74
2023/11/21 00:34:44;;;;;;;2.85;2.10;;;9.10;99.90;;;;;;2062702;28;20168;-74
2023/11/21 00:35:45;;;;;;;3.83;2.20;;;9.10;99.90;;;;;;2063343;28;20130;-74
2023/11/21 00:36:45;;;;;;;5.07;2.40;;;9.10;99.90;;;;;;2071060;28;20084;-74
2023/11/21 00:37:46;;;;;;;6.95;2.58;;;9.10;99.90;;;;;;2070636;28;20415;-75
2023/11/21 00:38:47;;;;;;;5.80;2.60;;;9.10;99.90;;;;;;2083169;28;20025;-74
2023/11/21 00:39:49;;;;;;;5.00;2.60;;;9.10;99.90;;;;;;2080428;28;20392;-74
2023/11/21 00:40:49;;;;;;;4.78;2.30;;;9.10;99.90;;;;;;2091085;28;20033;-74
2023/11/21 00:41:51;;;;;;;5.05;2.85;;;9.10;99.90;;;;;;2087426;28;20037;-74
2023/11/21 00:42:53;;;;;;;6.00;2.88;;;9.10;99.90;;;;;;2075024;28;20084;-75
2023/11/21 00:43:54;;;;;;;5.93;3.17;;;9.10;99.90;;;;;;2073632;28;20030;-74
2023/11/21 00:44:56;;;;;;;6.22;3.13;;;9.10;99.90;;;;;;2081366;28;20029;-74
2023/11/21 00:45:56;;;;;;;6.07;2.88;;;9.10;99.90;;;;;;2063537;28;20087;-75
2023/11/21 00:46:57;;;;;;;5.93;3.15;;;9.10;99.90;;;;;;2068009;28;20026;-75
2023/11/21 00:47:58;;;;;;;4.90;2.72;;;9.10;99.90;;;;;;2066599;28;20022;-75
2023/11/21 00:48:58;;;;;;;3.97;2.78;;;9.10;99.90;;;;;;2073465;28;20025;-75
2023/11/21 00:49:59;;;;;;;4.80;2.80;;;9.10;99.90;;;;;;2063021;28;20042;-75
2023/11/21 00:51:00;;;;;;;5.60;2.80;;;9.10;99.90;;;;;;2070336;28;20026;-74
2023/11/21 00:52:01;;;;;;;4.45;2.67;;;9.10;99.90;;;;;;2074061;28;20120;-75
2023/11/21 00:53:02;;;;;;;4.80;2.63;;;9.10;99.90;;;;;;2074315;28;20032;-75
2023/11/21 00:54:03;;;;;;;4.28;2.70;;;9.10;99.90;;;;;;2066424;28;20038;-76
2023/11/21 00:55:07;;;;;;;4.63;2.70;;;9.10;99.90;;;;;;2066578;28;20036;-74
2023/11/21 00:56:08;;;;;;;4.60;2.70;;;9.10;99.90;;;;;;2072893;28;20068;-74
2023/11/21 00:57:09;;;;;;;5.60;2.75;;;9.10;99.90;;;;;;2077994;28;20671;-75
2023/11/21 00:58:10;;;;;;;7.80;2.50;;;9.10;99.90;;;;;;2069310;28;20049;-77
2023/11/21 00:59:10;;;;;;;4.32;2.38;;;9.00;99.90;;;;;;2066135;28;20039;-74
2023/11/21 01:00:16;;;;;;;4.35;2.35;;;9.00;99.90;;;;;;2082318;28;20102;-74
2023/11/21 01:01:21;;;;;;;6.07;2.67;;;9.10;99.90;;;;;;2075194;28;20243;-74
2023/11/21 01:02:22;;;;;;;3.70;2.58;;;9.00;99.90;;;;;;2078506;28;20137;-74
2023/11/21 01:03:23;;;;;;;4.38;2.78;;;9.10;99.90;;;;;;2071068;28;20068;-75
2023/11/21 01:04:23;;;;;;;5.20;2.72;;;9.10;99.90;;;;;;2078314;28;20040;-82
2023/11/21 01:05:24;;;;;;;4.07;2.60;;;9.00;99.90;;;;;;2078272;28;20019;-81
2023/11/21 01:06:25;;;;;;;3.72;2.45;;;9.00;99.90;;;;;;2086751;28;20115;-74
2023/11/21 01:07:27;;;;;;;5.60;2.60;;;9.00;99.90;;;;;;2084640;28;20025;-81
2023/11/21 01:08:28;;;;;;;4.75;2.90;;;9.00;99.90;;;;;;2084823;28;20033;-84
2023/11/21 01:09:30;;;;;;;6.70;2.88;;;9.10;99.90;;;;;;2095002;28;20009;-83
2023/11/21 01:10:30;;;;;;;4.82;2.63;;;9.10;99.90;;;;;;2086492;28;20056;-84
2023/11/21 01:11:31;;;;;;;3.53;2.53;;;9.10;99.90;;;;;;2084584;28;20028;-83
2023/11/21 01:12:32;;;;;;;3.58;2.53;;;9.10;99.90;;;;;;2089983;28;20119;-84
2023/11/21 01:13:32;;;;;;;4.00;2.30;;;9.10;99.90;;;;;;2093638;28;20048;-84
2023/11/21 01:14:33;;;;;;;4.38;2.63;;;9.10;99.90;;;;;;2092059;28;20032;-84
2023/11/21 01:15:34;;;;;;;5.53;2.60;;;9.10;99.90;;;;;;2085147;28;20022;-85
2023/11/21 01:16:35;;;;;;;3.30;2.40;;;9.10;99.90;;;;;;2077366;28;20061;-83
2023/11/21 01:17:36;;;;;;;3.97;2.50;;;9.10;99.90;;;;;;2085539;28;20056;-84
2023/11/21 01:18:37;;;;;;;5.63;2.75;;;9.10;99.90;;;;;;2098099;28;20096;-83
2023/11/21 01:19:38;;;;;;;3.67;2.40;;;9.10;99.90;;;;;;2094243;28;20016;-83
2023/11/21 01:20:38;;;;;;;5.38;2.40;;;9.10;99.90;;;;;;2089897;28;20036;-83
2023/11/21 01:21:40;;;;;;;3.75;2.40;;;9.10;99.90;;;;;;2086136;28;20240;-83
2023/11/21 01:22:41;;;;;;;3.85;2.30;;;9.10;99.90;;;;;;2097772;28;20075;-82
2023/11/21 01:23:42;;;;;;;5.13;2.65;;;9.10;99.90;;;;;;2104344;28;20020;-83
2023/11/21 01:24:42;;;;;;;6.82;2.70;;;9.10;99.90;;;;;;2095158;28;20017;-81
2023/11/21 01:25:43;;;;;;;5.13;2.30;;;9.10;99.90;;;;;;2094931;28;20029;-82
2023/11/21 01:26:46;;;;;;;3.50;2.30;;;9.10;99.90;;;;;;2094687;28;20087;-84
2023/11/21 01:27:47;;;;;;;5.85;2.60;;;9.10;99.90;;;;;;2095790;28;20043;-84
2023/11/21 01:28:50;;;;;;;3.95;2.50;;;9.10;99.90;;;;;;2103129;28;20035;-83
2023/11/21 01:29:53;;;;;;;4.07;2.60;;;9.10;99.90;;;;;;2094633;28;20006;-83
2023/11/21 01:30:56;;;;;;;4.05;2.45;;;9.10;99.90;;;;;;2094800;28;20009;-83
2023/11/21 01:31:57;;;;;;;5.00;2.63;;;9.10;99.90;;;;;;2086312;28;20041;-85
2023/11/21 01:32:59;;;;;;;7.25;2.67;;;9.10;99.90;;;;;;2087691;28;20013;-84
2023/11/21 01:33:59;;;;;;;6.10;2.92;;;9.10;99.90;;;;;;2092545;28;20036;-84
2023/11/21 01:35:00;;;;;;;7.30;2.90;;;9.10;99.90;;;;;;2094774;28;20021;-84
2023/11/21 01:36:01;;;;;;;5.80;3.15;;;9.10;99.90;;;;;;2102837;28;20025;-84
2023/11/21 01:37:04;;;;;;;4.75;2.75;;;9.10;99.90;;;;;;2102043;28;20042;-83
2023/11/21 01:38:07;;;;;;;6.43;2.80;;;9.10;99.90;;;;;;2103000;28;20054;-83
2023/11/21 01:39:11;;;;;;;4.78;2.67;;;9.10;99.90;;;;;;2085960;28;20088;-83
2023/11/21 01:40:13;;;;;;;5.35;3.00;;;9.10;99.90;;;;;;2085462;28;20295;-84
2023/11/21 01:41:14;;;;;;;4.32;2.60;;;9.10;99.90;;;;;;2094115;28;20021;-83
2023/11/21 01:42:15;;;;;;;5.35;2.88;;;9.10;99.90;;;;;;2086098;28;20251;-83
2023/11/21 01:43:16;;;;;;;6.13;2.72;;;9.10;99.90;;;;;;2090813;28;20029;-84
2023/11/21 01:44:19;;;;;;;9.20;2.83;;;9.10;99.90;;;;;;2093561;28;20026;-83
2023/11/21 01:45:19;;;;;;;6.15;2.88;;;9.10;99.90;;;;;;2086708;28;20021;-83
2023/11/21 01:46:22;;;;;;;5.78;2.67;;;9.10;99.90;;;;;;2083742;28;20029;-83
2023/11/21 01:47:23;;;;;;;5.30;2.75;;;9.10;99.90;;;;;;2088491;28;20021;-82
2023/11/21 01:48:24;;;;;;;3.75;2.70;;;9.10;99.90;;;;;;2079395;28;20045;-81
2023/11/21 01:49:25;;;;;;;5.47;2.92;;;9.10;99.90;;;;;;2079074;28;20191;-84
2023/11/21 01:50:25;;;;;;;4.50;2.80;;;9.10;99.90;;;;;;2083284;28;20033;-85
2023/11/21 01:51:26;;;;;;;3.45;2.60;;;9.10;99.90;;;;;;2078621;28;20036;-85
2023/11/21 01:52:27;;;;;;;6.22;2.97;;;9.10;99.90;;;;;;2085353;28;20025;-86
2023/11/21 01:53:30;;;;;;;5.78;2.80;;;9.10;99.90;;;;;;2085845;28;20033;-85
2023/11/21 01:54:33;;;;;;;6.55;2.80;;;9.10;99.90;;;;;;2084382;28;20025;-84
2023/11/21 01:55:35;;;;;;;4.45;2.67;;;9.10;99.90;;;;;;2084421;28;20314;-84
2023/11/21 01:56:36;;;;;;;4.25;2.70;;;9.10;99.90;;;;;;2090770;28;20036;-84
2023/11/21 01:57:40;;;;;;;6.28;3.08;;;9.10;99.90;;;;;;2090556;28;20024;-83
2023/11/21 01:58:41;;;;;;;6.60;2.88;;;9.10;99.90;;;;;;2087847;28;20025;-84
2023/11/21 01:59:42;;;;;;;6.22;2.95;;;9.10;99.90;;;;;;2092513;28;20032;-83
2023/11/21 02:00:43;;;;;;;7.03;3.10;;;9.10;99.90;;;;;;2093923;28;20035;-83
2023/11/21 02:01:44;;;;;;;5.10;3.08;;;9.10;99.90;;;;;;2083002;28;20101;-84
2023/11/21 02:02:46;;;;;;;5.32;3.08;;;9.10;99.90;;;;;;2084570;28;20429;-83
2023/11/21 02:03:46;;;;;;;5.35;3.00;;;9.10;99.90;;;;;;2092187;28;20027;-83
2023/11/21 02:04:47;;;;;;;5.47;3.08;;;9.10;99.90;;;;;;2088995;28;20020;-84
2023/11/21 02:05:48;;;;;;;6.72;3.00;;;9.10;99.90;;;;;;2083833;28;20033;-84
2023/11/21 02:06:50;;;;;;;6.22;3.00;;;9.10;99.90;;;;;;2083486;28;20021;-84
2023/11/21 02:07:52;;;;;;;5.07;2.90;;;9.10;99.90;;;;;;2084403;28;20052;-83
2023/11/21 02:08:53;;;;;;;5.30;3.20;;;9.10;99.90;;;;;;2079571;28;20641;-82
2023/11/21 02:09:53;;;;;;;4.70;2.75;;;9.10;99.90;;;;;;2083669;28;20048;-82
2023/11/21 02:10:54;;;;;;;5.13;2.90;;;9.10;99.90;;;;;;2092429;28;20033;-82
2023/11/21 02:11:55;;;;;;;4.50;2.72;;;9.10;99.90;;;;;;2075689;28;20041;-82
2023/11/21 02:12:56;;;;;;;8.73;3.20;;;9.10;99.90;;;;;;2082985;28;20071;-82
2023/11/21 02:14:00;;;;;;;7.20;3.28;;;9.10;99.90;;;;;;2080251;28;20087;-83
2023/11/21 02:15:09;;;;;;;6.65;2.75;;;9.10;99.90;;;;;;2077661;28;20033;-83
2023/11/21 02:16:12;;;;;;;6.20;3.15;;;9.10;99.90;;;;;;2077467;28;20103;-83
2023/11/21 02:17:13;;;;;;;6.40;3.13;;;9.10;99.90;;;;;;2085588;28;20597;-83
2023/11/21 02:18:15;;;;;;;6.70;3.00;;;9.10;99.90;;;;;;2081499;28;20444;-84
2023/11/21 02:19:25;;;;;;;5.30;2.88;;;9.10;99.90;;;;;;2082935;28;20029;-82
2023/11/21 02:20:26;;;;;;;7.57;3.10;;;9.10;99.90;;;;;;2080308;28;20036;-83
2023/11/21 02:21:27;;;;;;;4.90;2.80;;;9.10;99.90;;;;;;2083600;28;20116;-82
2023/11/21 02:22:32;;;;;;;5.38;3.17;;;9.10;99.90;;;;;;2088924;28;20025;-84
2023/11/21 02:23:33;;;;;;;5.78;3.13;;;9.10;99.90;;;;;;2092771;28;20036;-84
2023/11/21 02:24:34;;;;;;;4.13;2.95;;;9.10;99.90;;;;;;2081913;28;20037;-84
2023/11/21 02:25:36;;;;;;;5.43;3.10;;;9.10;99.90;;;;;;2086868;28;20040;-85
2023/11/21 02:26:37;;;;;;;6.88;3.00;;;9.10;99.90;;;;;;2090214;28;20198;-84
2023/11/21 02:27:38;;;;;;;6.47;3.20;;;9.10;99.90;;;;;;2092434;28;20031;-83
2023/11/21 02:28:38;;;;;;;8.10;3.17;;;9.10;99.90;;;;;;2085538;28;20036;-83
2023/11/21 02:29:39;;;;;;;5.90;2.90;;;9.10;99.90;;;;;;2076978;28;20049;-83
2023/11/21 02:30:40;;;;;;;7.03;2.70;;;9.10;99.90;;;;;;2084107;28;20533;-83
2023/11/21 02:31:47;;;;;;;7.10;3.00;;;9.10;99.90;;;;;;2080770;28;20022;-83
2023/11/21 02:32:48;;;;;;;4.35;2.72;;;9.10;99.90;;;;;;2082971;28;20025;-85
2023/11/21 02:33:49;;;;;;;5.35;2.75;;;9.10;99.90;;;;;;2072826;28;20147;-83
2023/11/21 02:34:50;;;;;;;6.13;2.60;;;9.10;99.90;;;;;;2084974;28;20028;-84
2023/11/21 02:35:54;;;;;;;6.80;2.85;;;9.10;99.90;;;;;;2093489;28;20025;-83
2023/11/21 02:36:55;;;;;;;5.18;2.70;;;9.10;99.90;;;;;;2088793;28;20401;-84
2023/11/21 02:37:56;;;;;;;8.30;2.85;;;9.00;99.90;;;;;;2092343;28;20040;-82
2023/11/21 02:38:56;;;;;;;7.15;2.70;;;9.00;99.90;;;;;;2077586;28;20029;-82
2023/11/21 02:39:57;;;;;;;4.60;3.00;;;9.00;99.90;;;;;;2084163;28;20029;-82
2023/11/21 02:40:59;;;;;;;8.68;3.15;;;9.00;99.90;;;;;;2077007;28;20041;-83
2023/11/21 02:41:59;;;;;;;7.10;3.20;;;8.90;99.90;;;;;;2076721;28;20033;-83
2023/11/21 02:43:00;;;;;;;6.85;3.00;;;8.90;99.90;;;;;;2085302;28;20044;-81
2023/11/21 02:44:01;;;;;;;6.72;3.00;;;8.90;99.90;;;;;;2084187;28;20037;-82
2023/11/21 02:45:01;;;;;;;5.07;2.67;;;8.90;99.90;;;;;;2084245;28;20510;-82
2023/11/21 02:46:02;;;;;;;4.53;2.70;;;8.90;99.90;;;;;;2094265;28;20035;-83
2023/11/21 02:47:04;;;;;;;7.13;3.00;;;8.80;99.90;;;;;;2090589;28;20063;-82
2023/11/21 02:48:06;;;;;;;6.88;2.78;;;8.80;99.90;;;;;;2083799;28;20080;-83
2023/11/21 02:49:06;;;;;;;6.65;2.80;;;8.80;99.90;;;;;;2073618;28;20515;-85
2023/11/21 02:50:08;;;;;;;6.82;2.83;;;8.80;99.90;;;;;;2075100;28;20106;-84
2023/11/21 02:51:09;;;;;;;5.95;2.70;;;8.80;99.90;;;;;;2083906;28;20411;-84
2023/11/21 02:52:09;;;;;;;7.80;3.00;;;8.70;99.90;;;;;;2075383;28;20041;-83
2023/11/21 02:53:10;;;;;;;7.72;2.80;;;8.70;99.90;;;;;;2068587;28;20504;-84
2023/11/21 02:54:11;;;;;;;5.60;3.00;;;8.70;99.90;;;;;;2075077;28;20148;-84
2023/11/21 02:55:12;;;;;;;7.68;2.80;;;8.70;99.90;;;;;;2079060;28;20487;-83
2023/11/21 02:56:13;;;;;;;7.93;2.90;;;8.70;99.90;;;;;;2079008;28;20040;-83
2023/11/21 02:57:13;;;;;;;8.50;2.67;;;8.70;99.90;;;;;;2075866;28;20079;-83
2023/11/21 02:58:14;;;;;;;5.85;2.95;;;8.70;99.90;;;;;;2078871;28;20297;-83
2023/11/21 02:59:15;;;;;;;6.40;2.85;;;8.70;99.90;;;;;;2083227;28;20040;-83
2023/11/21 03:00:16;;;;;;;6.43;3.10;;;8.60;99.90;;;;;;2091662;28;20029;-82
2023/11/21 03:01:17;;;;;;;6.50;2.88;;;8.70;99.90;;;;;;2080112;28;20112;-82
2023/11/21 03:02:18;;;;;;;6.00;2.88;;;8.70;99.90;;;;;;2067437;28;20038;-82
2023/11/21 03:03:18;;;;;;;4.60;2.60;;;8.70;99.90;;;;;;2074462;28;20618;-82
2023/11/21 03:04:19;;;;;;;7.68;3.00;;;8.60;99.90;;;;;;2082601;28;20026;-83
2023/11/21 03:05:20;;;;;;;7.43;3.20;;;8.60;99.90;;;;;;2085490;28;20558;-82
2023/11/21 03:06:21;;;;;;;7.30;2.95;;;8.60;99.90;;;;;;2091005;28;20066;-82
2023/11/21 03:07:21;;;;;;;7.80;2.80;;;8.60;99.90;;;;;;2083335;28;20123;-82
2023/11/21 03:08:22;;;;;;;6.18;2.92;;;8.60;99.90;;;;;;2079043;28;20025;-83
2023/11/21 03:09:22;;;;;;;6.00;2.97;;;8.60;99.90;;;;;;2075240;28;20032;-82
2023/11/21 03:10:23;;;;;;;7.40;3.30;;;8.60;99.90;;;;;;2062738;28;20488;-82
2023/11/21 03:11:24;;;;;;;6.53;2.95;;;8.60;99.90;;;;;;2074918;28;20037;-81
2023/11/21 03:12:25;;;;;;;6.60;3.00;;;8.60;99.90;;;;;;2082898;28;20029;-82
2023/11/21 03:13:26;;;;;;;5.07;2.65;;;8.60;99.90;;;;;;2092354;28;20442;-82
2023/11/21 03:14:26;;;;;;;10.10;3.20;;;8.60;99.90;;;;;;2088856;28;20035;-83
2023/11/21 03:15:27;;;;;;;5.70;2.90;;;8.60;99.90;;;;;;2084600;28;20462;-82
2023/11/21 03:16:28;;;;;;;7.32;3.15;;;8.60;99.90;;;;;;2081551;28;20067;-83
2023/11/21 03:17:29;;;;;;;7.10;2.88;;;8.60;99.90;;;;;;2081087;28;20072;-83
2023/11/21 03:18:30;;;;;;;7.22;2.90;;;8.60;99.90;;;;;;2085659;28;20399;-83
2023/11/21 03:19:31;;;;;;;4.90;2.70;;;8.60;99.90;;;;;;2084347;28;20029;-83
2023/11/21 03:20:31;;;;;;;5.55;2.97;;;8.60;99.90;;;;;;2073532;28;20362;-84
2023/11/21 03:21:32;;;;;;;5.70;2.85;;;8.60;99.90;;;;;;2076655;28;20114;-82
2023/11/21 03:22:32;;;;;;;5.72;2.92;;;8.60;99.90;;;;;;2076501;28;20030;-82
2023/11/21 03:23:33;;;;;;;7.47;3.03;;;8.60;99.90;;;;;;2076322;28;20079;-83
2023/11/21 03:24:34;;;;;;;8.30;3.15;;;8.60;99.90;;;;;;2084783;28;20510;-82
2023/11/21 03:25:35;;;;;;;7.90;3.17;;;8.60;99.90;;;;;;2084107;28;20040;-83
2023/11/21 03:26:37;;;;;;;6.25;3.00;;;8.60;99.90;;;;;;2090844;28;20525;-86
2023/11/21 03:27:38;;;;;;;5.95;3.10;;;8.50;99.90;;;;;;2092899;28;20028;-83
2023/11/21 03:28:39;;;;;;;8.77;3.60;;;8.50;99.90;;;;;;2085127;28;20078;-83
2023/11/21 03:29:40;;;;;;;7.50;3.45;;;8.50;99.90;;;;;;2076507;28;20125;-84
2023/11/21 03:30:40;;;;;;;6.00;3.15;;;8.50;99.90;;;;;;2068600;28;20432;-84
2023/11/21 03:31:41;;;;;;;7.72;2.92;;;8.50;99.90;;;;;;2078164;28;20677;-83
2023/11/21 03:32:42;;;;;;;7.20;3.00;;;8.50;99.90;;;;;;2087364;28;20059;-83
2023/11/21 03:33:42;;;;;;;7.47;3.08;;;8.50;99.90;;;;;;2067676;28;20009;-83
2023/11/21 03:34:58;;;;;;;5.95;2.85;;;8.50;99.90;;;;;;2064097;28;20031;-82
2023/11/21 03:36:00;;;;;;;6.95;2.95;;;8.40;99.90;;;;;;2082473;28;20029;-83
2023/11/21 03:37:00;;;;;;;7.78;3.08;;;8.50;99.90;;;;;;2076428;28;20030;-83
2023/11/21 03:38:01;;;;;;;7.88;2.80;;;8.40;99.90;;;;;;2077771;28;20023;-82
2023/11/21 03:39:05;;;;;;;6.40;3.00;;;8.40;99.90;;;;;;2084704;28;20102;-83
2023/11/21 03:40:08;;;;;;;5.95;3.10;;;8.50;99.90;;;;;;2082108;28;20458;-81
2023/11/21 03:41:10;;;;;;;8.07;3.00;;;8.50;99.90;;;;;;2084289;28;20037;-84
2023/11/21 03:42:10;;;;;;;8.45;3.05;;;8.50;99.90;;;;;;2084317;28;20041;-84
2023/11/21 03:43:11;;;;;;;9.90;2.95;;;8.50;99.90;;;;;;2077091;28;20103;-81
2023/11/21 03:44:11;;;;;;;9.07;3.10;;;8.50;99.90;;;;;;2082418;28;20028;-82
2023/11/21 03:45:12;;;;;;;7.00;2.90;;;8.40;99.90;;;;;;2083854;28;20025;-82
2023/11/21 03:46:13;;;;;;;7.03;2.67;;;8.50;99.90;;;;;;2084399;28;20148;-82
2023/11/21 03:47:13;;;;;;;5.80;2.90;;;8.40;99.90;;;;;;2088741;28;20060;-83
2023/11/21 03:48:14;;;;;;;6.55;3.17;;;8.50;99.90;;;;;;2089099;28;20025;-83
2023/11/21 03:49:15;;;;;;;6.88;2.90;;;8.50;99.90;;;;;;2084216;28;20057;-83
2023/11/21 03:50:16;;;;;;;7.38;2.92;;;8.40;99.90;;;;;;2084316;28;20029;-85
2023/11/21 03:51:18;;;;;;;6.88;2.88;;;8.40;99.90;;;;;;2084460;28;20091;-85
2023/11/21 03:52:19;;;;;;;6.88;3.03;;;8.40;99.90;;;;;;2071283;28;20436;-86
2023/11/21 03:53:19;;;;;;;8.70;3.10;;;8.40;99.90;;;;;;2076440;28;20029;-84
2023/11/21 03:54:20;;;;;;;9.02;3.20;;;8.40;99.90;;;;;;2091415;28;20433;-84
2023/11/21 03:55:21;;;;;;;7.60;3.17;;;8.50;99.90;;;;;;2084189;28;20484;-82
2023/11/21 03:56:21;;;;;;;5.43;3.13;;;8.40;99.90;;;;;;2085077;28;20025;-83
2023/11/21 03:57:22;;;;;;;7.32;3.10;;;8.50;99.90;;;;;;2092512;28;20131;-83
2023/11/21 03:58:22;;;;;;;7.97;3.03;;;8.50;99.90;;;;;;2092498;28;20561;-82
2023/11/21 03:59:24;;;;;;;7.47;3.05;;;8.50;99.90;;;;;;2085565;28;20082;-83
2023/11/21 04:00:26;;;;;;;8.52;3.30;;;8.50;99.90;;;;;;2083240;28;20037;-83
2023/11/21 04:01:27;;;;;;;6.47;3.00;;;8.50;99.90;;;;;;2085542;28;20111;-84
2023/11/21 04:02:28;;;;;;;6.00;2.83;;;8.50;99.90;;;;;;2085361;28;20029;-84
2023/11/21 04:03:28;;;;;;;5.55;2.80;;;8.50;99.90;;;;;;2077431;28;20040;-78
2023/11/21 04:04:29;;;;;;;5.85;3.25;;;8.50;99.90;;;;;;2088276;28;20162;-82
2023/11/21 04:05:30;;;;;;;8.63;3.00;;;8.50;99.90;;;;;;2082784;28;20031;-81
2023/11/21 04:06:32;;;;;;;7.28;3.20;;;8.50;99.90;;;;;;2093352;28;20025;-82
2023/11/21 04:07:33;;;;;;;7.13;2.95;;;8.50;99.90;;;;;;2094088;28;20028;-84
2023/11/21 04:08:33;;;;;;;9.13;3.33;;;8.50;99.90;;;;;;2082856;28;20026;-84
2023/11/21 04:09:36;;;;;;;9.00;3.47;;;8.50;99.90;;;;;;2093657;28;20078;-83
2023/11/21 04:10:36;;;;;;;7.85;3.05;;;8.50;99.90;;;;;;2085247;28;20426;-83
2023/11/21 04:11:37;;;;;;;6.93;3.00;;;8.60;99.90;;;;;;2084797;28;20041;-81
2023/11/21 04:12:38;;;;;;;8.73;3.30;;;8.60;99.90;;;;;;2089348;28;20346;-82
2023/11/21 04:13:42;;;;;;;9.07;3.25;;;8.50;99.90;;;;;;2087361;28;20055;-83
2023/11/21 04:14:42;;;;;;;8.82;3.50;;;8.50;99.90;;;;;;2090023;28;20025;-82
2023/11/21 04:15:43;;;;;;;6.18;3.15;;;8.50;99.90;;;;;;2081322;28;20022;-83
2023/11/21 04:16:44;;;;;;;6.85;3.20;;;8.50;99.90;;;;;;2086513;28;20029;-82
2023/11/21 04:17:45;;;;;;;8.20;3.22;;;8.50;99.90;;;;;;2090746;28;20092;-82
2023/11/21 04:18:45;;;;;;;10.00;3.38;;;8.60;99.90;;;;;;2083534;28;20406;-82
2023/11/21 04:19:46;;;;;;;9.38;3.33;;;8.60;99.90;;;;;;2078017;28;20025;-84
2023/11/21 04:20:48;;;;;;;6.80;3.33;;;8.50;99.90;;;;;;2067715;28;20169;-82
2023/11/21 04:21:49;;;;;;;8.32;3.35;;;8.50;99.90;;;;;;2075975;28;20100;-83
2023/11/21 04:22:50;;;;;;;6.93;3.30;;;8.50;99.90;;;;;;2068667;28;20029;-82
2023/11/21 04:23:51;;;;;;;8.15;3.10;;;8.50;99.90;;;;;;2074490;28;20030;-83
2023/11/21 04:24:52;;;;;;;10.02;3.78;;;8.50;99.90;;;;;;2071087;28;20068;-83
2023/11/21 04:25:54;;;;;;;8.55;3.53;;;8.50;99.90;;;;;;2083668;28;20083;-83
2023/11/21 04:26:54;;;;;;;7.13;3.72;;;8.50;99.90;;;;;;2084405;28;20411;-82
2023/11/21 04:27:55;;;;;;;8.32;3.53;;;8.40;99.90;;;;;;2080674;28;20045;-83
2023/11/21 04:28:56;;;;;;;10.52;3.60;;;8.40;99.90;;;;;;2084413;28;20032;-83
2023/11/21 04:29:56;;;;;;;10.70;3.50;;;8.40;99.90;;;;;;2081822;28;20359;-84
2023/11/21 04:30:57;;;;;;;7.38;3.60;;;8.50;99.90;;;;;;2088899;28;20129;-84
2023/11/21 04:31:58;;;;;;;8.38;3.63;;;8.50;99.90;;;;;;2080502;28;20041;-84
2023/11/21 04:32:59;;;;;;;8.57;3.90;;;8.40;99.90;;;;;;2076720;28;20033;-84
2023/11/21 04:33:59;;;;;;;7.85;3.75;;;8.40;99.90;;;;;;2085155;28;20052;-83
2023/11/21 04:35:00;;;;;;;9.75;4.05;;;8.40;99.90;;;;;;2085536;28;20374;-83
2023/11/21 04:36:01;;;;;;;7.15;3.70;;;8.40;99.90;;;;;;2082239;28;20042;-83
2023/11/21 04:37:03;;;;;;;7.90;3.85;;;8.40;99.90;;;;;;2086950;28;20025;-82
2023/11/21 04:38:03;;;;;;;9.88;4.10;;;8.40;99.90;;;;;;2083240;28;20037;-82
2023/11/21 04:39:04;;;;;;;9.85;3.83;;;8.30;99.90;;;;;;2094055;28;20033;-83
2023/11/21 04:40:08;;;;;;;7.28;4.07;;;8.30;99.90;;;;;;2093389;28;20036;-83
2023/11/21 04:41:09;;;;;;;6.78;3.88;;;8.20;99.90;;;;;;2089439;28;20493;-84
2023/11/21 04:42:10;;;;;;;8.18;4.07;;;8.20;99.90;;;;;;2081265;28;20118;-83
2023/11/21 04:43:11;;;;;;;9.48;4.10;;;8.20;99.90;;;;;;2084440;28;20105;-83
2023/11/21 04:44:11;;;;;;;8.27;3.78;;;8.20;99.90;;;;;;2092603;28;20041;-83
2023/11/21 04:45:12;;;;;;;8.95;4.28;;;8.20;99.90;;;;;;2099850;28;20048;-84
2023/11/21 04:46:12;;;;;;;7.10;3.97;;;8.20;99.90;;;;;;2091866;28;20005;-84
2023/11/21 04:47:13;;;;;;;9.77;4.13;;;8.20;99.90;;;;;;2092812;28;20088;-83
2023/11/21 04:48:14;;;;;;;10.18;4.22;;;8.20;99.90;;;;;;2097620;28;20032;-83
2023/11/21 04:49:15;;;;;;;6.75;3.95;;;8.20;99.90;;;;;;2094356;28;20009;-84
2023/11/21 04:50:15;;;;;;;8.55;4.30;;;8.20;99.90;;;;;;2086813;28;20033;-84
2023/11/21 04:51:16;;;;;;;8.55;4.30;;;8.20;99.90;;;;;;2091246;28;20020;-84
2023/11/21 04:52:16;;;;;;;9.38;4.50;;;8.20;99.90;;;;;;2085885;28;20061;-85
2023/11/21 04:53:17;;;;;;;8.52;4.00;;;8.20;99.90;;;;;;2069173;28;20030;-85
2023/11/21 04:54:18;;;;;;;8.77;4.45;;;8.30;99.90;;;;;;2079275;28;20029;-85
2023/11/21 04:55:19;;;;;;;7.15;4.32;;;8.30;99.90;;;;;;2075768;28;20494;-84
2023/11/21 04:56:20;;;;;;;8.00;4.10;;;8.40;99.90;;;;;;2076053;28;20026;-84
2023/11/21 04:57:21;;;;;;;9.20;4.30;;;8.40;99.90;;;;;;2085790;28;20491;-84
2023/11/21 04:58:22;;;;;;;7.65;4.30;;;8.40;99.90;;;;;;2081391;28;20079;-83
2023/11/21 04:59:26;;;;;;;9.45;4.47;;;8.40;99.90;;;;;;2092571;28;20029;-83
2023/11/21 05:00:27;;;;;;;9.40;4.63;;;8.40;99.90;;;;;;2092640;28;20017;-83
2023/11/21 05:01:28;;;;;;;7.47;4.25;;;8.50;99.90;;;;;;2080850;28;20033;-83
2023/11/21 05:02:29;;;;;;;7.35;4.50;;;8.50;99.90;;;;;;2071814;28;20025;-81
2023/11/21 05:03:30;;;;;;;9.15;4.43;;;8.50;99.90;;;;;;2076563;28;20053;-83
2023/11/21 05:04:30;;;;;;;9.27;4.63;;;8.50;99.90;;;;;;2087921;28;20081;-82
2023/11/21 05:05:31;;;;;;;9.50;4.85;;;8.50;99.90;;;;;;2079458;28;20057;-83
2023/11/21 05:06:32;;;;;;;7.70;4.85;;;8.50;99.90;;;;;;2081052;28;20028;-82
2023/11/21 05:07:35;;;;;;;11.13;5.25;;;8.50;99.90;;;;;;2084319;28;20017;-82
2023/11/21 05:08:37;;;;;;;15.20;5.40;;;8.50;99.90;;;;;;2082878;28;20032;-84
2023/11/21 05:09:43;;;;;;;9.55;5.40;;;8.50;99.90;;;;;;2085135;28;20036;-83
2023/11/21 05:10:44;;;;;;;9.95;5.32;;;8.50;99.90;;;;;;2081933;28;20013;-83
2023/11/21 05:11:44;;;;;;;12.35;5.28;;;8.50;99.90;;;;;;2090100;28;20166;-84
2023/11/21 05:12:46;;;;;;;14.52;7.20;;;8.50;99.90;;;;;;2092416;28;20390;-84
2023/11/21 05:13:48;;;;;;;13.77;6.63;;;8.50;99.90;;;;;;2083934;28;20130;-84
2023/11/21 05:14:49;;;;;;;13.73;6.72;;;8.40;99.90;;;;;;2079169;28;20018;-84
2023/11/21 05:15:50;;;;;;;11.70;5.50;;;8.40;99.90;;;;;;2084917;28;20155;-84
2023/11/21 05:16:51;;;;;;;9.90;5.50;;;8.40;99.90;;;;;;2084690;28;20636;-83
2023/11/21 05:17:53;;;;;;;9.30;5.13;;;8.50;99.90;;;;;;2078681;28;20053;-82
2023/11/21 05:18:58;;;;;;;9.63;5.22;;;8.50;99.90;;;;;;2077373;28;20041;-83
2023/11/21 05:20:03;;;;;;;11.90;5.28;;;8.50;99.90;;;;;;2076915;28;20033;-82
2023/11/21 05:21:04;;;;;;;12.10;5.20;;;8.50;99.90;;;;;;2084357;28;20033;-82
2023/11/21 05:22:05;;;;;;;7.82;4.88;;;8.50;99.90;;;;;;2083696;28;20028;-82